createdAt,value
2019-03-30T00:01:12.340Z,11.97
2019-03-30T00:03:36.784Z,12.00
2019-03-30T00:06:01.279Z,12.04
2019-03-30T00:08:25.870Z,11.88
2019-03-30T00:10:50.619Z,11.68
2019-03-30T00:13:15.052Z,11.80
2019-03-30T00:15:39.534Z,11.64
2019-03-30T00:18:04.031Z,11.88
2019-03-30T00:20:28.466Z,11.81
2019-03-30T00:22:52.899Z,11.81
2019-03-30T00:25:17.317Z,11.71
2019-03-30T00:27:41.763Z,11.73
2019-03-30T00:30:07.595Z,11.80
2019-03-30T00:32:32.049Z,11.61
2019-03-30T00:34:56.468Z,11.71
2019-03-30T00:37:20.912Z,11.60
2019-03-30T00:39:45.333Z,11.51
2019-03-30T00:42:09.738Z,11.65
2019-03-30T00:44:34.265Z,11.60
2019-03-30T00:46:58.698Z,11.58
2019-03-30T00:49:23.129Z,11.73
2019-03-30T00:51:47.665Z,11.54
2019-03-30T00:54:12.248Z,11.51
2019-03-30T00:56:36.682Z,11.41
2019-03-30T00:59:01.227Z,11.36
2019-03-30T01:01:25.813Z,11.33
2019-03-30T01:03:50.323Z,11.51
2019-03-30T01:06:15.000Z,11.18
2019-03-30T01:08:39.479Z,10.80
2019-03-30T01:11:04.173Z,11.01
2019-03-30T01:13:28.684Z,11.23
2019-03-30T01:15:58.273Z,11.06
2019-03-30T01:18:22.700Z,11.26
2019-03-30T01:20:47.333Z,11.28
2019-03-30T01:23:11.837Z,11.53
2019-03-30T01:25:36.258Z,11.31
2019-03-30T01:28:00.706Z,11.32
2019-03-30T01:30:25.170Z,11.40
2019-03-30T01:32:49.716Z,11.21
2019-03-30T01:35:14.309Z,11.33
2019-03-30T01:37:38.768Z,11.37
2019-03-30T01:40:03.689Z,11.43
2019-03-30T01:42:28.116Z,11.45
2019-03-30T01:44:52.573Z,11.37
2019-03-30T01:47:17.000Z,11.08
2019-03-30T01:49:41.513Z,11.23
2019-03-30T01:52:05.936Z,11.18
2019-03-30T01:54:30.467Z,11.20
2019-03-30T01:56:54.890Z,11.14
2019-03-30T01:59:19.337Z,11.14
2019-03-30T02:01:43.764Z,11.22
2019-03-30T02:04:08.297Z,11.12
2019-03-30T02:06:32.790Z,11.25
2019-03-30T02:08:57.305Z,11.22
2019-03-30T02:11:21.795Z,11.25
2019-03-30T02:13:46.233Z,11.16
2019-03-30T02:16:10.661Z,11.13
2019-03-30T02:18:35.254Z,11.15
2019-03-30T02:20:59.740Z,11.26
2019-03-30T02:23:24.259Z,11.15
2019-03-30T02:25:48.718Z,11.30
2019-03-30T02:28:13.273Z,11.39
2019-03-30T02:30:38.261Z,10.94
2019-03-30T02:33:02.756Z,10.83
2019-03-30T02:35:27.277Z,11.09
2019-03-30T02:37:51.780Z,11.23
2019-03-30T02:40:16.300Z,11.14
2019-03-30T02:42:40.707Z,11.23
2019-03-30T02:45:06.584Z,11.09
2019-03-30T02:47:31.085Z,11.09
2019-03-30T02:49:55.540Z,10.89
2019-03-30T02:52:19.968Z,11.16
2019-03-30T02:54:44.413Z,11.14
2019-03-30T02:57:08.906Z,10.90
2019-03-30T02:59:33.372Z,10.83
2019-03-30T03:01:57.967Z,10.74
2019-03-30T03:04:22.414Z,10.85
2019-03-30T03:06:46.839Z,10.84
2019-03-30T03:09:11.286Z,10.61
2019-03-30T03:11:35.698Z,10.69
2019-03-30T03:14:00.272Z,10.55
2019-03-30T03:16:27.317Z,10.64
2019-03-30T03:18:50.816Z,10.58
2019-03-30T03:21:15.223Z,10.53
2019-03-30T03:23:39.689Z,10.25
2019-03-30T03:26:04.169Z,10.33
2019-03-30T03:28:28.597Z,10.50
2019-03-30T03:30:53.100Z,10.37
2019-03-30T03:33:17.512Z,10.37
2019-03-30T03:35:41.954Z,10.27
2019-03-30T03:38:06.387Z,10.19
2019-03-30T03:40:30.841Z,10.34
2019-03-30T03:42:55.330Z,10.30
2019-03-30T03:45:19.778Z,10.22
2019-03-30T03:47:44.275Z,10.19
2019-03-30T03:50:10.913Z,10.18
2019-03-30T03:52:35.774Z,9.98
2019-03-30T03:55:00.603Z,10.14
2019-03-30T03:57:27.972Z,10.03
2019-03-30T03:59:53.556Z,10.03
2019-03-30T04:02:19.714Z,9.97
2019-03-30T04:04:47.614Z,9.89
2019-03-30T04:07:13.658Z,9.96
2019-03-30T04:09:40.282Z,9.86
2019-03-30T04:12:07.909Z,9.70
2019-03-30T04:14:35.143Z,9.68
2019-03-30T04:16:59.559Z,9.69
2019-03-30T04:19:23.988Z,9.69
2019-03-30T04:21:48.545Z,9.70
2019-03-30T04:24:12.979Z,9.81
2019-03-30T04:26:37.400Z,9.78
2019-03-30T04:29:01.826Z,9.69
2019-03-30T04:31:26.266Z,9.68
2019-03-30T04:33:50.689Z,9.81
2019-03-30T04:36:15.124Z,9.77
2019-03-30T04:38:39.550Z,10.04
2019-03-30T04:41:04.127Z,9.93
2019-03-30T04:43:28.530Z,9.90
2019-03-30T04:45:52.974Z,9.92
2019-03-30T04:48:17.391Z,9.81
2019-03-30T04:50:41.902Z,9.85
2019-03-30T04:53:06.319Z,9.90
2019-03-30T04:55:30.753Z,9.99
2019-03-30T04:57:57.723Z,9.85
2019-03-30T05:00:21.483Z,9.96
2019-03-30T05:02:45.912Z,9.90
2019-03-30T05:05:10.516Z,9.98
2019-03-30T05:07:34.932Z,9.80
2019-03-30T05:09:59.361Z,9.89
2019-03-30T05:12:23.781Z,9.98
2019-03-30T05:14:48.412Z,9.91
2019-03-30T05:17:12.817Z,9.71
2019-03-30T05:19:37.320Z,9.77
2019-03-30T05:22:12.016Z,9.67
2019-03-30T05:24:27.934Z,9.69
2019-03-30T05:26:52.384Z,9.65
2019-03-30T05:29:16.788Z,9.83
2019-03-30T05:31:41.298Z,9.52
2019-03-30T05:34:05.793Z,9.62
2019-03-30T05:36:30.272Z,9.78
2019-03-30T05:38:54.687Z,9.83
2019-03-30T05:41:19.128Z,9.98
2019-03-30T05:43:43.541Z,9.92
2019-03-30T05:46:08.030Z,9.84
2019-03-30T05:48:32.454Z,9.88
2019-03-30T05:50:56.898Z,9.93
2019-03-30T05:53:21.442Z,9.95
2019-03-30T05:55:45.887Z,9.92
2019-03-30T05:58:10.312Z,10.10
2019-03-30T06:00:34.738Z,10.11
2019-03-30T06:02:59.402Z,10.05
2019-03-30T06:05:23.844Z,10.27
2019-03-30T06:07:48.272Z,10.29
2019-03-30T06:10:13.567Z,10.31
2019-03-30T06:12:38.164Z,10.17
2019-03-30T06:15:02.590Z,10.24
2019-03-30T06:17:27.058Z,10.29
2019-03-30T06:19:51.478Z,10.48
2019-03-30T06:22:15.998Z,10.44
2019-03-30T06:24:40.418Z,10.37
2019-03-30T06:27:04.941Z,10.43
2019-03-30T06:29:29.376Z,10.38
2019-03-30T06:31:53.821Z,10.47
2019-03-30T06:34:18.443Z,10.57
2019-03-30T06:36:42.913Z,10.61
2019-03-30T06:39:07.402Z,10.63
2019-03-30T06:41:31.850Z,10.48
2019-03-30T06:43:56.493Z,10.19
2019-03-30T06:46:20.920Z,10.39
2019-03-30T06:48:45.339Z,10.86
2019-03-30T06:51:09.779Z,10.89
2019-03-30T06:53:34.837Z,10.98
2019-03-30T06:55:59.357Z,11.17
2019-03-30T06:58:23.782Z,11.08
2019-03-30T07:00:48.772Z,11.24
2019-03-30T07:03:13.367Z,11.39
2019-03-30T07:05:41.934Z,11.44
2019-03-30T07:08:09.480Z,11.08
2019-03-30T07:10:34.043Z,10.95
2019-03-30T07:13:01.176Z,11.26
2019-03-30T07:15:27.749Z,11.41
2019-03-30T07:17:54.065Z,11.26
2019-03-30T07:20:29.285Z,10.98
2019-03-30T07:22:53.963Z,11.55
2019-03-30T07:25:18.391Z,11.42
2019-03-30T07:27:42.832Z,11.46
2019-03-30T07:30:08.679Z,11.81
2019-03-30T07:32:33.200Z,11.82
2019-03-30T07:34:57.628Z,12.17
2019-03-30T07:37:22.150Z,12.01
2019-03-30T07:39:46.566Z,12.05
2019-03-30T07:42:11.114Z,12.16
2019-03-30T07:44:35.544Z,12.03
2019-03-30T07:46:59.986Z,11.78
2019-03-30T07:49:24.407Z,12.15
2019-03-30T07:51:48.851Z,12.09
2019-03-30T07:54:13.269Z,12.41
2019-03-30T07:56:37.710Z,12.33
2019-03-30T07:59:02.241Z,12.66
2019-03-30T08:01:26.704Z,12.61
2019-03-30T08:03:51.167Z,12.83
2019-03-30T08:06:15.595Z,12.93
2019-03-30T08:08:40.037Z,12.98
2019-03-30T08:11:04.439Z,12.68
2019-03-30T08:13:29.268Z,12.90
2019-03-30T08:15:53.689Z,12.86
2019-03-30T08:18:18.128Z,13.25
2019-03-30T08:20:42.536Z,13.31
2019-03-30T08:23:07.119Z,13.35
2019-03-30T08:25:31.531Z,13.45
2019-03-30T08:27:56.038Z,13.40
2019-03-30T08:30:20.514Z,13.14
2019-03-30T08:32:44.958Z,13.36
2019-03-30T08:35:09.508Z,13.49
2019-03-30T08:37:34.021Z,13.68
2019-03-30T08:39:58.439Z,13.80
2019-03-30T08:42:22.892Z,14.11
2019-03-30T08:44:47.318Z,14.25
2019-03-30T08:47:11.760Z,14.16
2019-03-30T08:49:36.198Z,14.34
2019-03-30T08:52:00.598Z,14.21
2019-03-30T08:54:25.121Z,14.48
2019-03-30T08:56:49.522Z,14.39
2019-03-30T08:59:13.956Z,14.60
2019-03-30T09:01:38.375Z,14.86
2019-03-30T09:04:02.865Z,14.87
2019-03-30T09:06:27.313Z,15.15
2019-03-30T09:08:51.821Z,15.13
2019-03-30T09:11:16.244Z,15.02
2019-03-30T09:13:40.828Z,15.38
2019-03-30T09:16:05.328Z,15.54
2019-03-30T09:18:29.835Z,15.50
2019-03-30T09:20:54.251Z,15.70
2019-03-30T09:23:18.697Z,15.49
2019-03-30T09:25:43.125Z,15.74
2019-03-30T09:28:07.638Z,15.71
2019-03-30T09:30:32.125Z,15.41
2019-03-30T09:32:56.566Z,16.12
2019-03-30T09:35:21.041Z,16.39
2019-03-30T09:37:45.466Z,16.39
2019-03-30T09:40:11.507Z,16.41
2019-03-30T09:42:36.154Z,16.47
2019-03-30T09:45:00.668Z,16.37
2019-03-30T09:47:25.088Z,16.54
2019-03-30T09:49:49.534Z,16.66
2019-03-30T09:52:13.952Z,16.70
2019-03-30T09:54:38.392Z,16.82
2019-03-30T09:57:02.808Z,17.17
2019-03-30T09:59:27.233Z,17.49
2019-03-30T10:01:51.650Z,17.39
2019-03-30T10:04:16.089Z,17.78
2019-03-30T10:06:40.507Z,17.56
2019-03-30T10:09:06.597Z,16.99
2019-03-30T10:11:31.003Z,17.02
2019-03-30T10:13:55.412Z,17.72
2019-03-30T10:16:19.847Z,17.39
2019-03-30T10:18:44.255Z,17.67
2019-03-30T10:21:08.699Z,17.46
2019-03-30T10:23:33.192Z,17.82
2019-03-30T10:25:57.736Z,17.95
2019-03-30T10:28:22.254Z,18.01
2019-03-30T10:30:46.687Z,18.32
2019-03-30T10:33:11.718Z,17.98
2019-03-30T10:35:36.343Z,18.11
2019-03-30T10:38:00.769Z,18.10
2019-03-30T10:40:25.203Z,18.32
2019-03-30T10:42:49.621Z,18.17
2019-03-30T10:45:14.297Z,18.23
2019-03-30T10:47:38.707Z,18.24
2019-03-30T10:50:03.995Z,18.19
2019-03-30T10:52:28.414Z,18.05
2019-03-30T10:54:53.384Z,18.13
2019-03-30T10:57:18.639Z,18.63
2019-03-30T10:59:43.271Z,18.72
2019-03-30T11:02:07.771Z,18.80
2019-03-30T11:04:32.194Z,19.12
2019-03-30T11:06:56.642Z,19.06
2019-03-30T11:09:21.219Z,18.92
2019-03-30T11:11:45.672Z,18.83
2019-03-30T11:14:10.127Z,18.92
2019-03-30T11:16:34.562Z,18.92
2019-03-30T11:18:59.052Z,19.19
2019-03-30T11:21:23.486Z,19.07
2019-03-30T11:23:47.910Z,19.67
2019-03-30T11:26:12.412Z,19.69
2019-03-30T11:28:36.934Z,19.60
2019-03-30T11:31:01.468Z,19.42
2019-03-30T11:33:25.888Z,19.21
2019-03-30T11:35:50.671Z,18.91
2019-03-30T11:38:15.096Z,18.91
2019-03-30T11:40:39.512Z,19.09
2019-03-30T11:43:03.922Z,19.24
2019-03-30T11:45:28.612Z,19.45
2019-03-30T11:47:53.025Z,19.34
2019-03-30T11:50:17.538Z,19.47
2019-03-30T11:52:41.950Z,19.41
2019-03-30T11:55:20.915Z,19.87
2019-03-30T11:57:34.034Z,19.93
2019-03-30T11:59:58.447Z,19.75
2019-03-30T12:02:28.156Z,19.86
2019-03-30T12:04:49.128Z,19.77
2019-03-30T12:07:13.567Z,19.99
2019-03-30T12:09:37.981Z,19.64
2019-03-30T12:12:02.401Z,20.04
2019-03-30T12:14:26.821Z,20.38
2019-03-30T12:16:51.266Z,20.26
2019-03-30T12:19:15.688Z,20.23
2019-03-30T12:21:40.603Z,20.43
2019-03-30T12:24:05.044Z,20.06
2019-03-30T12:26:29.485Z,20.29
2019-03-30T12:28:53.901Z,20.26
2019-03-30T12:31:18.358Z,21.27
2019-03-30T12:33:42.839Z,21.01
2019-03-30T12:36:07.359Z,21.04
2019-03-30T12:38:31.846Z,21.31
2019-03-30T12:40:58.007Z,21.66
2019-03-30T12:43:22.483Z,23.63
2019-03-30T12:45:46.933Z,22.57
2019-03-30T12:48:11.516Z,21.48
2019-03-30T12:50:35.925Z,22.44
2019-03-30T12:53:00.372Z,21.62
2019-03-30T12:55:24.783Z,21.65
2019-03-30T12:57:49.222Z,22.07
2019-03-30T13:00:14.038Z,22.79
2019-03-30T13:02:38.488Z,23.05
2019-03-30T13:05:02.975Z,27.10
2019-03-30T13:07:27.413Z,27.27
2019-03-30T13:09:51.820Z,27.27
2019-03-30T13:12:16.259Z,27.76
2019-03-30T13:14:40.662Z,28.14
2019-03-30T13:17:05.111Z,28.10
2019-03-30T13:19:29.519Z,26.35
2019-03-30T13:21:53.953Z,26.64
2019-03-30T13:24:18.436Z,27.48
2019-03-30T13:26:42.898Z,27.87
2019-03-30T13:29:07.452Z,30.11
2019-03-30T13:31:31.930Z,30.72
2019-03-30T13:33:56.365Z,28.53
2019-03-30T13:36:22.418Z,31.90
2019-03-30T13:38:46.843Z,30.64
2019-03-30T13:41:13.941Z,31.14
2019-03-30T13:43:37.383Z,30.61
2019-03-30T13:46:01.798Z,27.00
2019-03-30T13:48:26.238Z,29.93
2019-03-30T13:50:50.661Z,29.49
2019-03-30T13:53:15.106Z,30.56
2019-03-30T13:55:39.502Z,31.67
2019-03-30T13:58:04.108Z,31.42
2019-03-30T14:00:28.505Z,25.40
2019-03-30T14:02:52.948Z,24.40
2019-03-30T14:05:17.356Z,24.37
2019-03-30T14:07:41.863Z,22.36
2019-03-30T14:10:08.520Z,27.63
2019-03-30T14:12:32.990Z,27.27
2019-03-30T14:14:57.410Z,21.91
2019-03-30T14:17:21.816Z,24.74
2019-03-30T14:19:47.734Z,22.15
2019-03-30T14:22:12.151Z,22.15
2019-03-30T14:24:36.578Z,21.73
2019-03-30T14:27:00.985Z,21.41
2019-03-30T14:29:25.515Z,24.93
2019-03-30T14:31:49.920Z,24.88
2019-03-30T14:34:14.343Z,24.88
2019-03-30T14:36:38.761Z,26.29
2019-03-30T14:39:04.617Z,27.28
2019-03-30T14:41:29.038Z,27.06
2019-03-30T14:43:53.449Z,22.25
2019-03-30T14:46:17.930Z,21.85
2019-03-30T14:48:42.431Z,28.52
2019-03-30T14:51:06.901Z,28.52
2019-03-30T14:53:31.319Z,29.72
2019-03-30T14:55:55.720Z,30.01
2019-03-30T14:58:20.306Z,26.24
2019-03-30T15:00:44.770Z,23.97
2019-03-30T15:03:09.228Z,24.26
2019-03-30T15:05:33.667Z,25.02
2019-03-30T15:07:58.059Z,25.02
2019-03-30T15:10:22.552Z,24.94
2019-03-30T15:12:46.955Z,25.56
2019-03-30T15:15:12.928Z,23.33
2019-03-30T15:17:40.463Z,23.46
2019-03-30T15:20:04.651Z,22.47
2019-03-30T15:22:29.057Z,23.98
2019-03-30T15:24:53.490Z,26.32
2019-03-30T15:27:18.376Z,25.05
2019-03-30T15:29:45.413Z,25.05
2019-03-30T15:32:08.910Z,26.34
2019-03-30T15:34:33.345Z,24.33
2019-03-30T15:36:57.817Z,27.83
2019-03-30T15:39:22.412Z,23.26
2019-03-30T15:41:46.832Z,23.22
2019-03-30T15:44:11.287Z,22.56
2019-03-30T15:46:35.689Z,22.56
2019-03-30T15:49:00.120Z,23.98
2019-03-30T15:51:24.589Z,22.06
2019-03-30T15:53:50.034Z,20.53
2019-03-30T15:56:14.913Z,20.61
2019-03-30T15:58:39.327Z,20.95
2019-03-30T16:01:03.814Z,21.10
2019-03-30T16:03:29.096Z,21.62
2019-03-30T16:05:53.528Z,21.42
2019-03-30T16:08:18.087Z,21.05
2019-03-30T16:10:42.518Z,21.29
2019-03-30T16:13:06.919Z,21.54
2019-03-30T16:15:31.342Z,21.80
2019-03-30T16:17:55.749Z,22.16
2019-03-30T16:20:20.243Z,21.09
2019-03-30T16:22:45.980Z,21.66
2019-03-30T16:25:10.533Z,21.55
2019-03-30T16:27:35.082Z,21.09
2019-03-30T16:29:59.522Z,21.74
2019-03-30T16:32:23.931Z,21.37
2019-03-30T16:34:48.387Z,21.06
2019-03-30T16:37:12.865Z,21.64
2019-03-30T16:39:37.335Z,21.27
2019-03-30T16:42:01.774Z,21.13
2019-03-30T16:44:26.187Z,20.68
2019-03-30T16:46:50.677Z,21.18
2019-03-30T16:49:15.101Z,20.84
2019-03-30T16:51:39.548Z,20.90
2019-03-30T16:54:04.406Z,21.30
2019-03-30T16:56:28.836Z,21.09
2019-03-30T16:58:53.255Z,20.65
2019-03-30T17:01:17.678Z,20.63
2019-03-30T17:03:42.086Z,19.95
2019-03-30T17:06:06.511Z,20.35
2019-03-30T17:08:30.945Z,19.96
2019-03-30T17:10:55.369Z,20.30
2019-03-30T17:13:19.794Z,20.27
2019-03-30T17:15:44.197Z,19.55
2019-03-30T17:18:08.634Z,19.44
2019-03-30T17:20:33.047Z,19.47
2019-03-30T17:22:58.994Z,19.34
2019-03-30T17:25:23.489Z,19.42
2019-03-30T17:27:58.246Z,19.34
2019-03-30T17:30:14.367Z,18.97
2019-03-30T17:32:38.944Z,18.82
2019-03-30T17:35:04.046Z,18.73
2019-03-30T17:37:28.570Z,19.01
2019-03-30T17:39:52.981Z,18.91
2019-03-30T17:42:17.497Z,18.81
2019-03-30T17:44:41.919Z,19.06
2019-03-30T17:47:06.438Z,18.75
2019-03-30T17:49:30.839Z,18.61
2019-03-30T17:51:55.264Z,18.73
2019-03-30T17:54:19.737Z,18.74
2019-03-30T17:56:44.190Z,19.16
2019-03-30T17:59:08.588Z,19.88
2019-03-30T18:01:33.493Z,19.82
2019-03-30T18:03:57.897Z,18.85
2019-03-30T18:06:22.309Z,19.32
2019-03-30T18:08:46.755Z,19.77
2019-03-30T18:11:11.325Z,20.03
2019-03-30T18:13:36.947Z,20.08
2019-03-30T18:16:01.543Z,20.21
2019-03-30T18:18:25.971Z,20.04
2019-03-30T18:20:50.383Z,19.80
2019-03-30T18:23:14.819Z,19.77
2019-03-30T18:25:39.241Z,19.64
2019-03-30T18:28:03.741Z,19.71
2019-03-30T18:30:39.642Z,19.98
2019-03-30T18:33:04.235Z,19.90
2019-03-30T18:35:30.612Z,19.85
2019-03-30T18:37:55.416Z,19.90
2019-03-30T18:40:28.547Z,19.88
2019-03-30T18:42:53.129Z,19.91
2019-03-30T18:45:28.053Z,19.89
2019-03-30T18:47:53.222Z,19.76
2019-03-30T18:50:17.877Z,19.73
2019-03-30T18:52:42.720Z,19.43
2019-03-30T18:55:08.066Z,19.58
2019-03-30T18:57:32.467Z,19.40
2019-03-30T18:59:56.899Z,19.19
2019-03-30T19:02:21.301Z,19.39
2019-03-30T19:04:45.730Z,19.56
2019-03-30T19:07:10.160Z,19.41
2019-03-30T19:09:34.590Z,19.10
2019-03-30T19:11:59.011Z,19.15
2019-03-30T19:14:23.531Z,18.99
2019-03-30T19:16:47.933Z,18.15
2019-03-30T19:19:12.357Z,17.94
2019-03-30T19:21:36.791Z,17.50
2019-03-30T19:24:01.291Z,17.12
2019-03-30T19:26:25.694Z,17.04
2019-03-30T19:28:56.579Z,17.43
2019-03-30T19:31:19.415Z,17.50
2019-03-30T19:33:43.841Z,17.32
2019-03-30T19:36:10.031Z,17.65
2019-03-30T19:38:34.451Z,18.12
2019-03-30T19:40:58.860Z,18.19
2019-03-30T19:43:23.283Z,18.13
2019-03-30T19:45:47.868Z,18.18
2019-03-30T19:48:12.291Z,18.27
2019-03-30T19:50:36.781Z,18.37
2019-03-30T19:53:01.217Z,18.25
2019-03-30T19:55:27.312Z,18.13
2019-03-30T19:57:51.715Z,18.04
2019-03-30T20:00:16.755Z,17.85
2019-03-30T20:02:41.439Z,17.95
2019-03-30T20:05:08.426Z,17.58
2019-03-30T20:07:32.918Z,17.87
2019-03-30T20:09:57.359Z,17.90
2019-03-30T20:12:21.857Z,17.86
2019-03-30T20:14:46.410Z,17.82
2019-03-30T20:17:10.836Z,17.20
2019-03-30T20:19:35.273Z,17.54
2019-03-30T20:21:59.708Z,17.40
2019-03-30T20:24:24.156Z,17.64
2019-03-30T20:26:48.606Z,17.52
2019-03-30T20:29:24.658Z,17.56
2019-03-30T20:31:39.171Z,17.40
2019-03-30T20:34:03.660Z,16.92
2019-03-30T20:36:28.085Z,16.60
2019-03-30T20:38:52.492Z,16.73
2019-03-30T20:41:16.926Z,15.88
2019-03-30T20:43:41.339Z,16.35
2019-03-30T20:46:05.770Z,15.86
2019-03-30T20:48:30.183Z,15.51
2019-03-30T20:50:54.596Z,15.16
2019-03-30T20:53:19.004Z,14.65
2019-03-30T20:55:43.455Z,15.02
2019-03-30T20:58:07.989Z,15.70
2019-03-30T21:00:32.495Z,16.36
2019-03-30T21:02:56.975Z,16.34
2019-03-30T21:05:21.409Z,16.51
2019-03-30T21:07:45.836Z,16.05
2019-03-30T21:10:10.821Z,15.38
2019-03-30T21:12:35.237Z,14.62
2019-03-30T21:14:59.691Z,14.31
2019-03-30T21:17:24.117Z,15.16
2019-03-30T21:19:48.605Z,15.87
2019-03-30T21:22:13.040Z,15.44
2019-03-30T21:24:37.447Z,16.04
2019-03-30T21:27:01.955Z,16.17
2019-03-30T21:29:26.378Z,16.08
2019-03-30T21:31:50.817Z,16.30
2019-03-30T21:34:15.214Z,16.16
2019-03-30T21:36:39.637Z,16.09
2019-03-30T21:39:05.998Z,16.09
2019-03-30T21:41:30.436Z,16.20
2019-03-30T21:43:54.852Z,16.27
2019-03-30T21:46:19.306Z,16.29
2019-03-30T21:48:43.712Z,16.20
2019-03-30T21:51:08.172Z,16.16
2019-03-30T21:53:32.587Z,16.13
2019-03-30T21:55:57.032Z,16.06
2019-03-30T21:58:21.461Z,16.16
2019-03-30T22:00:45.929Z,16.16
2019-03-30T22:03:10.729Z,15.97
2019-03-30T22:05:35.791Z,15.80
2019-03-30T22:08:00.771Z,15.87
2019-03-30T22:10:27.303Z,15.93
2019-03-30T22:12:51.730Z,15.62
2019-03-30T22:15:19.182Z,15.60
2019-03-30T22:17:43.620Z,15.71
2019-03-30T22:20:08.127Z,15.54
2019-03-30T22:22:32.564Z,14.88
2019-03-30T22:24:56.988Z,14.65
2019-03-30T22:27:21.435Z,14.74
2019-03-30T22:29:45.873Z,14.60
2019-03-30T22:32:10.321Z,14.27
2019-03-30T22:34:34.811Z,14.68
2019-03-30T22:36:59.270Z,15.07
2019-03-30T22:39:23.706Z,14.67
2019-03-30T22:41:48.139Z,14.78
2019-03-30T22:44:12.614Z,15.07
2019-03-30T22:46:37.014Z,15.17
2019-03-30T22:49:01.546Z,15.28
2019-03-30T22:51:25.989Z,15.39
2019-03-30T22:53:50.437Z,15.15
2019-03-30T22:56:14.932Z,15.26
2019-03-30T22:58:39.582Z,15.10
2019-03-30T23:01:05.781Z,15.26
2019-03-30T23:03:30.271Z,15.13
2019-03-30T23:05:54.834Z,15.20
2019-03-30T23:08:19.339Z,15.08
2019-03-30T23:10:43.793Z,14.88
2019-03-30T23:13:08.326Z,14.97
2019-03-30T23:15:32.954Z,15.01
2019-03-30T23:17:57.551Z,14.87
2019-03-30T23:20:22.044Z,14.93
2019-03-30T23:22:46.477Z,14.91
2019-03-30T23:25:10.990Z,14.78
2019-03-30T23:27:35.477Z,14.83
2019-03-30T23:29:59.906Z,14.91
2019-03-30T23:32:24.320Z,14.85
2019-03-30T23:34:48.765Z,14.74
2019-03-30T23:37:13.197Z,14.78
2019-03-30T23:39:37.632Z,14.77
2019-03-30T23:42:02.044Z,14.73
2019-03-30T23:44:26.551Z,14.63
2019-03-30T23:46:50.970Z,14.72
2019-03-30T23:49:15.421Z,14.60
2019-03-30T23:51:39.832Z,14.18
2019-03-30T23:54:04.420Z,13.98
2019-03-30T23:56:28.920Z,13.76
2019-03-30T23:58:53.498Z,13.92
